createdAt,value
2019-02-28T00:00:40.716Z,6.60
2019-02-28T00:03:10.782Z,6.50
2019-02-28T00:05:39.944Z,6.40
2019-02-28T00:08:08.732Z,6.20
2019-02-28T00:10:37.549Z,6.10
2019-02-28T00:13:06.448Z,6.00
2019-02-28T00:15:35.304Z,5.80
2019-02-28T00:18:04.401Z,5.90
2019-02-28T00:20:33.464Z,5.90
2019-02-28T00:23:02.243Z,6.00
2019-02-28T00:25:31.303Z,6.00
2019-02-28T00:28:00.284Z,6.00
2019-02-28T00:30:29.368Z,6.10
2019-02-28T00:32:59.343Z,6.20
2019-02-28T00:35:29.602Z,6.20
2019-02-28T00:37:58.528Z,6.20
2019-02-28T00:40:27.468Z,6.20
2019-02-28T00:42:56.349Z,6.20
2019-02-28T00:45:25.332Z,6.10
2019-02-28T00:47:54.256Z,6.10
2019-02-28T00:50:23.521Z,6.00
2019-02-28T00:52:52.424Z,5.90
2019-02-28T00:55:21.313Z,5.80
2019-02-28T00:57:50.105Z,5.70
2019-02-28T01:00:19.481Z,5.70
2019-02-28T01:02:52.138Z,5.60
2019-02-28T01:05:19.296Z,5.60
2019-02-28T01:07:49.077Z,5.50
2019-02-28T01:10:18.147Z,5.50
2019-02-28T01:12:47.124Z,5.60
2019-02-28T01:15:16.480Z,5.60
2019-02-28T01:17:45.421Z,5.60
2019-02-28T01:20:16.301Z,5.50
2019-02-28T01:22:44.997Z,5.50
2019-02-28T01:25:14.425Z,5.40
2019-02-28T01:27:43.425Z,5.40
2019-02-28T01:30:12.884Z,5.30
2019-02-28T01:32:41.870Z,5.20
2019-02-28T01:35:11.372Z,5.10
2019-02-28T01:37:40.328Z,5.10
2019-02-28T01:40:09.887Z,5.00
2019-02-28T01:42:38.824Z,4.80
2019-02-28T01:45:09.786Z,4.80
2019-02-28T01:47:39.262Z,4.70
2019-02-28T01:50:08.233Z,4.70
2019-02-28T01:52:37.138Z,4.70
2019-02-28T01:55:06.676Z,4.60
2019-02-28T01:57:35.559Z,4.70
2019-02-28T02:00:05.820Z,4.60
2019-02-28T02:02:38.083Z,4.60
2019-02-28T02:05:06.248Z,4.60
2019-02-28T02:07:35.473Z,4.50
2019-02-28T02:10:07.165Z,4.50
2019-02-28T02:12:35.964Z,4.50
2019-02-28T02:15:07.045Z,4.40
2019-02-28T02:17:36.269Z,4.40
2019-02-28T02:20:06.108Z,4.40
2019-02-28T02:22:34.931Z,4.40
2019-02-28T02:25:04.263Z,4.30
2019-02-28T02:27:33.412Z,4.30
2019-02-28T02:30:02.313Z,4.30
2019-02-28T02:32:37.041Z,4.30
2019-02-28T02:35:07.835Z,4.30
2019-02-28T02:37:32.540Z,4.30
2019-02-28T02:40:01.600Z,4.30
2019-02-28T02:42:30.433Z,4.30
2019-02-28T02:44:59.345Z,4.30
2019-02-28T02:47:32.436Z,4.30
2019-02-28T02:49:58.881Z,4.30
2019-02-28T02:52:30.391Z,4.30
2019-02-28T02:54:58.326Z,4.30
2019-02-28T02:57:27.313Z,4.40
2019-02-28T02:59:56.245Z,4.50
2019-02-28T03:02:37.708Z,4.50
2019-02-28T03:05:07.353Z,4.50
2019-02-28T03:07:36.597Z,4.40
2019-02-28T03:10:07.225Z,4.30
2019-02-28T03:12:36.124Z,4.30
2019-02-28T03:15:05.486Z,4.10
2019-02-28T03:17:34.426Z,4.10
2019-02-28T03:20:07.482Z,4.00
2019-02-28T03:22:34.468Z,3.90
2019-02-28T03:25:03.408Z,3.80
2019-02-28T03:27:32.328Z,3.80
2019-02-28T03:30:01.243Z,3.80
2019-02-28T03:32:39.709Z,3.80
2019-02-28T03:35:00.812Z,3.90
2019-02-28T03:37:33.223Z,3.90
2019-02-28T03:40:04.330Z,4.00
2019-02-28T03:42:31.125Z,4.00
2019-02-28T03:45:00.009Z,3.90
2019-02-28T03:47:28.941Z,3.90
2019-02-28T03:49:57.965Z,3.90
2019-02-28T03:52:26.780Z,3.90
2019-02-28T03:54:55.716Z,3.80
2019-02-28T03:57:29.312Z,3.80
2019-02-28T03:59:56.712Z,3.70
2019-02-28T04:02:25.983Z,3.80
2019-02-28T04:04:54.956Z,3.80
2019-02-28T04:07:24.136Z,3.90
2019-02-28T04:09:53.063Z,3.90
2019-02-28T04:12:21.977Z,3.90
2019-02-28T04:14:50.952Z,3.90
2019-02-28T04:17:40.552Z,3.90
2019-02-28T04:20:09.946Z,3.80
2019-02-28T04:22:38.813Z,3.80
2019-02-28T04:25:07.834Z,3.90
2019-02-28T04:27:40.494Z,3.90
2019-02-28T04:30:09.374Z,4.00
2019-02-28T04:32:38.181Z,4.10
2019-02-28T04:35:07.473Z,4.10
2019-02-28T04:37:36.365Z,4.10
2019-02-28T04:40:06.513Z,4.20
2019-02-28T04:42:36.670Z,4.30
2019-02-28T04:45:07.760Z,4.30
2019-02-28T04:47:37.205Z,4.30
2019-02-28T04:50:07.976Z,4.30
2019-02-28T04:52:37.536Z,4.30
2019-02-28T04:55:06.820Z,4.30
2019-02-28T04:57:35.731Z,4.40
2019-02-28T05:00:05.849Z,4.40
2019-02-28T05:02:35.427Z,4.30
2019-02-28T05:05:04.511Z,4.30
2019-02-28T05:07:33.472Z,4.30
2019-02-28T05:10:02.400Z,4.20
2019-02-28T05:12:31.206Z,4.20
2019-02-28T05:15:02.507Z,4.20
2019-02-28T05:17:30.660Z,4.10
2019-02-28T05:19:59.588Z,4.00
2019-02-28T05:22:28.635Z,4.00
2019-02-28T05:24:58.060Z,3.90
2019-02-28T05:27:26.854Z,3.90
2019-02-28T05:29:56.039Z,4.00
2019-02-28T05:32:24.936Z,4.00
2019-02-28T05:34:53.748Z,4.00
2019-02-28T05:37:22.953Z,4.00
2019-02-28T05:39:52.012Z,4.10
2019-02-28T05:42:23.351Z,4.10
2019-02-28T05:44:51.547Z,4.10
2019-02-28T05:47:20.436Z,4.20
2019-02-28T05:49:49.492Z,4.40
2019-02-28T05:52:18.384Z,4.60
2019-02-28T05:54:50.307Z,4.90
2019-02-28T05:57:17.983Z,5.30
2019-02-28T05:59:46.815Z,5.70
2019-02-28T06:02:19.014Z,6.00
2019-02-28T06:04:46.278Z,6.30
2019-02-28T06:07:15.179Z,6.50
2019-02-28T06:09:45.556Z,6.60
2019-02-28T06:12:14.816Z,6.70
2019-02-28T06:14:43.745Z,6.80
2019-02-28T06:17:12.695Z,6.90
2019-02-28T06:19:43.545Z,7.00
2019-02-28T06:22:12.287Z,7.10
2019-02-28T06:24:44.865Z,7.20
2019-02-28T06:27:12.077Z,7.40
2019-02-28T06:29:40.908Z,7.50
2019-02-28T06:32:09.775Z,7.70
2019-02-28T06:34:39.439Z,7.90
2019-02-28T06:37:09.607Z,8.10
2019-02-28T06:39:38.492Z,8.30
2019-02-28T06:42:07.596Z,8.50
2019-02-28T06:44:37.864Z,8.70
2019-02-28T06:47:07.056Z,8.90
2019-02-28T06:49:40.950Z,8.90
2019-02-28T06:52:06.472Z,9.10
2019-02-28T06:54:35.297Z,9.10
2019-02-28T06:57:04.175Z,9.20
2019-02-28T06:59:33.006Z,9.30
2019-02-28T07:02:01.979Z,9.40
2019-02-28T07:04:30.780Z,9.50
2019-02-28T07:06:59.653Z,9.50
2019-02-28T07:09:30.396Z,9.60
2019-02-28T07:11:59.070Z,9.60
2019-02-28T07:14:28.084Z,9.70
2019-02-28T07:16:56.958Z,9.70
2019-02-28T07:19:26.492Z,9.70
2019-02-28T07:21:56.167Z,9.70
2019-02-28T07:24:25.069Z,9.80
2019-02-28T07:26:54.037Z,9.80
2019-02-28T07:29:22.975Z,9.90
2019-02-28T07:31:52.056Z,10.00
2019-02-28T07:34:23.792Z,10.00
2019-02-28T07:36:51.446Z,10.10
2019-02-28T07:39:20.234Z,10.10
2019-02-28T07:41:49.044Z,10.10
2019-02-28T07:44:21.098Z,10.10
2019-02-28T07:46:48.449Z,10.20
2019-02-28T07:49:17.271Z,10.20
2019-02-28T07:51:46.494Z,10.20
2019-02-28T07:54:15.971Z,10.20
2019-02-28T07:56:45.545Z,10.20
2019-02-28T07:59:14.333Z,10.20
2019-02-28T08:01:43.300Z,10.30
2019-02-28T08:04:12.271Z,10.40
2019-02-28T08:06:41.313Z,10.40
2019-02-28T08:09:27.797Z,10.50
2019-02-28T08:11:56.838Z,10.60
2019-02-28T08:14:25.802Z,10.70
2019-02-28T08:16:54.780Z,10.70
2019-02-28T08:19:27.093Z,10.80
2019-02-28T08:21:54.168Z,10.90
2019-02-28T08:24:23.212Z,11.00
2019-02-28T08:26:53.467Z,11.10
2019-02-28T08:29:22.608Z,11.20
2019-02-28T08:31:51.388Z,11.30
2019-02-28T08:34:20.573Z,11.30
2019-02-28T08:36:51.147Z,11.40
2019-02-28T08:39:20.430Z,11.40
2019-02-28T08:41:49.679Z,11.50
2019-02-28T08:44:22.463Z,11.60
2019-02-28T08:46:49.513Z,11.70
2019-02-28T08:49:18.380Z,11.70
2019-02-28T08:51:47.188Z,11.80
2019-02-28T08:54:16.048Z,11.90
2019-02-28T08:56:46.131Z,12.00
2019-02-28T08:59:19.637Z,12.20
2019-02-28T09:01:46.218Z,12.50
2019-02-28T09:04:15.069Z,12.70
2019-02-28T09:06:43.965Z,12.80
2019-02-28T09:09:14.696Z,12.90
2019-02-28T09:11:44.173Z,13.00
2019-02-28T09:14:14.745Z,13.00
2019-02-28T09:16:43.809Z,13.10
2019-02-28T09:19:12.617Z,13.20
2019-02-28T09:21:41.581Z,13.30
2019-02-28T09:24:12.518Z,13.40
2019-02-28T09:26:41.324Z,13.50
2019-02-28T09:29:10.152Z,13.70
2019-02-28T09:31:39.830Z,13.90
2019-02-28T09:34:09.323Z,14.00
2019-02-28T09:36:38.288Z,14.20
2019-02-28T09:39:08.300Z,14.30
2019-02-28T09:41:40.226Z,14.40
2019-02-28T09:44:08.157Z,14.50
2019-02-28T09:46:37.017Z,14.60
2019-02-28T09:49:09.097Z,14.70
2019-02-28T09:51:36.551Z,14.80
2019-02-28T09:54:05.842Z,14.90
2019-02-28T09:56:34.846Z,15.00
2019-02-28T09:59:03.967Z,15.10
2019-02-28T10:01:32.854Z,15.20
2019-02-28T10:04:01.789Z,15.30
2019-02-28T10:06:30.728Z,15.40
2019-02-28T10:08:59.914Z,15.50
2019-02-28T10:11:31.892Z,15.60
2019-02-28T10:14:00.053Z,15.70
2019-02-28T10:16:29.160Z,15.80
2019-02-28T10:18:58.450Z,15.90
2019-02-28T10:21:27.464Z,16.00
2019-02-28T10:23:57.055Z,16.00
2019-02-28T10:26:27.133Z,16.20
2019-02-28T10:28:55.938Z,16.30
2019-02-28T10:31:35.155Z,16.50
2019-02-28T10:33:55.472Z,16.60
2019-02-28T10:36:24.630Z,16.60
2019-02-28T10:38:53.748Z,16.70
2019-02-28T10:41:24.289Z,16.80
2019-02-28T10:43:55.861Z,17.00
2019-02-28T10:46:23.936Z,17.00
2019-02-28T10:48:52.894Z,17.10
2019-02-28T10:51:22.198Z,17.10
2019-02-28T10:53:51.034Z,17.20
2019-02-28T10:56:19.915Z,17.30
2019-02-28T10:58:50.158Z,17.30
2019-02-28T11:01:19.506Z,17.30
2019-02-28T11:03:48.468Z,17.40
2019-02-28T11:06:17.396Z,17.40
2019-02-28T11:08:47.517Z,17.40
2019-02-28T11:11:17.560Z,17.50
2019-02-28T11:13:46.820Z,17.50
2019-02-28T11:16:15.851Z,17.50
2019-02-28T11:18:44.772Z,17.50
2019-02-28T11:21:13.997Z,17.50
2019-02-28T11:23:42.788Z,17.50
2019-02-28T11:26:11.655Z,17.50
2019-02-28T11:28:40.496Z,17.50
2019-02-28T11:31:11.157Z,17.50
2019-02-28T11:33:40.453Z,17.50
2019-02-28T11:36:10.026Z,17.40
2019-02-28T11:38:38.904Z,17.40
2019-02-28T11:41:07.758Z,17.40
2019-02-28T11:43:38.408Z,17.50
2019-02-28T11:46:08.290Z,17.60
2019-02-28T11:48:37.224Z,17.60
2019-02-28T11:51:06.230Z,17.70
2019-02-28T11:53:39.268Z,17.70
2019-02-28T11:56:06.154Z,17.70
2019-02-28T11:58:35.049Z,17.80
2019-02-28T12:01:10.075Z,17.90
2019-02-28T12:03:35.539Z,18.00
2019-02-28T12:06:06.826Z,18.00
2019-02-28T12:08:36.050Z,18.10
2019-02-28T12:11:05.264Z,18.30
2019-02-28T12:13:34.176Z,18.20
2019-02-28T12:16:03.848Z,18.30
2019-02-28T12:18:32.715Z,18.20
2019-02-28T12:21:03.546Z,18.20
2019-02-28T12:23:32.572Z,18.30
2019-02-28T12:26:01.433Z,18.30
2019-02-28T12:28:30.333Z,18.30
2019-02-28T12:31:00.237Z,18.40
2019-02-28T12:33:29.981Z,18.50
2019-02-28T12:35:59.085Z,18.70
2019-02-28T12:38:29.223Z,18.70
2019-02-28T12:40:58.381Z,18.70
2019-02-28T12:43:27.376Z,18.70
2019-02-28T12:45:59.818Z,18.70
2019-02-28T12:48:27.532Z,18.80
2019-02-28T12:50:56.456Z,18.90
2019-02-28T12:53:25.481Z,19.00
2019-02-28T12:55:54.792Z,19.20
2019-02-28T12:58:23.652Z,19.30
2019-02-28T13:00:56.388Z,19.50
2019-02-28T13:03:23.158Z,19.50
2019-02-28T13:05:52.121Z,19.50
2019-02-28T13:08:21.100Z,19.50
2019-02-28T13:10:50.083Z,19.50
2019-02-28T13:13:21.677Z,19.60
2019-02-28T13:15:49.774Z,19.60
2019-02-28T13:18:19.497Z,19.70
2019-02-28T13:20:48.466Z,19.90
2019-02-28T13:23:17.344Z,20.20
2019-02-28T13:25:46.366Z,20.50
2019-02-28T13:28:17.682Z,21.00
2019-02-28T13:30:50.388Z,21.60
2019-02-28T13:33:16.697Z,21.90
2019-02-28T13:35:47.326Z,22.30
2019-02-28T13:38:19.122Z,22.70
2019-02-28T13:40:47.485Z,22.70
2019-02-28T13:43:20.912Z,22.60
2019-02-28T13:45:50.936Z,22.70
2019-02-28T13:48:25.717Z,22.70
2019-02-28T13:50:48.440Z,23.00
2019-02-28T13:53:18.559Z,23.10
2019-02-28T13:55:48.022Z,23.20
2019-02-28T13:58:17.721Z,23.20
2019-02-28T14:00:47.736Z,23.10
2019-02-28T14:03:17.086Z,22.90
2019-02-28T14:05:46.374Z,23.00
2019-02-28T14:08:15.700Z,22.60
2019-02-28T14:10:44.901Z,22.60
2019-02-28T14:13:14.101Z,22.50
2019-02-28T14:15:43.621Z,22.30
2019-02-28T14:18:13.120Z,22.30
2019-02-28T14:20:42.003Z,22.30
2019-02-28T14:23:10.973Z,22.20
2019-02-28T14:25:41.230Z,22.20
2019-02-28T14:28:10.469Z,22.10
2019-02-28T14:30:39.511Z,22.20
2019-02-28T14:33:08.804Z,22.10
2019-02-28T14:35:38.727Z,21.90
2019-02-28T14:38:07.983Z,22.00
2019-02-28T14:40:36.929Z,21.90
2019-02-28T14:43:05.921Z,21.80
2019-02-28T14:45:35.301Z,21.70
2019-02-28T14:48:05.151Z,21.70
2019-02-28T14:50:34.120Z,21.50
2019-02-28T14:53:03.020Z,21.30
2019-02-28T14:55:32.754Z,21.20
2019-02-28T14:58:02.528Z,20.90
2019-02-28T15:00:31.324Z,20.70
2019-02-28T15:03:02.803Z,20.60
2019-02-28T15:05:31.360Z,20.30
2019-02-28T15:08:01.673Z,20.30
2019-02-28T15:10:34.249Z,20.10
2019-02-28T15:13:01.220Z,20.00
2019-02-28T15:15:30.209Z,19.80
2019-02-28T15:17:59.124Z,19.80
2019-02-28T15:20:31.582Z,19.70
2019-02-28T15:22:59.679Z,19.50
2019-02-28T15:25:28.865Z,19.40
2019-02-28T15:27:57.723Z,19.20
2019-02-28T15:30:30.481Z,19.10
2019-02-28T15:32:59.160Z,18.90
2019-02-28T15:35:28.168Z,18.80
2019-02-28T15:37:57.325Z,18.80
2019-02-28T15:40:31.669Z,18.90
2019-02-28T15:43:00.562Z,18.80
2019-02-28T15:45:29.692Z,18.80
2019-02-28T15:48:00.395Z,18.90
2019-02-28T15:50:29.669Z,18.90
2019-02-28T15:52:59.363Z,18.60
2019-02-28T15:55:28.791Z,18.50
2019-02-28T15:57:58.204Z,18.30
2019-02-28T16:00:29.035Z,18.20
2019-02-28T16:02:58.465Z,18.00
2019-02-28T16:05:27.414Z,17.80
2019-02-28T16:07:57.316Z,17.40
2019-02-28T16:10:28.614Z,17.30
2019-02-28T16:12:59.038Z,17.00
2019-02-28T16:15:28.536Z,16.80
2019-02-28T16:17:57.526Z,16.50
2019-02-28T16:20:28.467Z,16.10
2019-02-28T16:22:57.064Z,15.90
2019-02-28T16:25:28.093Z,15.50
2019-02-28T16:27:57.092Z,15.30
2019-02-28T16:30:28.704Z,15.10
2019-02-28T16:32:57.062Z,14.90
2019-02-28T16:35:25.965Z,14.80
2019-02-28T16:37:54.751Z,14.60
2019-02-28T16:40:26.889Z,14.50
2019-02-28T16:42:54.700Z,14.30
2019-02-28T16:45:33.354Z,14.20
2019-02-28T16:48:05.696Z,14.10
2019-02-28T16:50:35.201Z,14.00
2019-02-28T16:53:05.043Z,14.00
2019-02-28T16:55:34.173Z,13.90
2019-02-28T16:58:03.068Z,13.90
2019-02-28T17:00:32.140Z,13.90
2019-02-28T17:03:04.041Z,13.90
2019-02-28T17:05:31.710Z,14.00
2019-02-28T17:08:00.856Z,13.90
2019-02-28T17:10:40.063Z,13.90
2019-02-28T17:13:38.728Z,13.80
2019-02-28T17:16:24.308Z,13.70
2019-02-28T17:18:56.439Z,13.60
2019-02-28T17:21:24.116Z,13.60
2019-02-28T17:23:53.029Z,13.50
2019-02-28T17:26:40.061Z,13.50
2019-02-28T17:29:16.760Z,13.50
2019-02-28T17:31:48.168Z,13.40
2019-02-28T17:34:23.721Z,13.40
2019-02-28T17:36:50.464Z,13.30
2019-02-28T17:39:19.515Z,13.30
2019-02-28T17:41:48.500Z,13.30
2019-02-28T17:44:44.253Z,13.30
2019-02-28T17:47:47.444Z,13.30
2019-02-28T17:50:46.265Z,13.30
2019-02-28T17:53:34.205Z,13.20
2019-02-28T17:56:42.735Z,13.20
2019-02-28T17:59:58.945Z,13.10
2019-02-28T18:03:15.366Z,13.10
2019-02-28T18:06:26.984Z,13.10
2019-02-28T18:09:27.361Z,13.10
2019-02-28T18:12:52.504Z,13.10
2019-02-28T18:18:50.320Z,13.10
2019-02-28T18:21:58.492Z,13.20
2019-02-28T18:25:20.643Z,13.20
2019-02-28T18:28:46.630Z,13.20
2019-02-28T18:31:19.268Z,13.30
2019-02-28T18:34:00.761Z,13.30
2019-02-28T18:36:31.276Z,13.30
2019-02-28T18:39:00.164Z,13.30
2019-02-28T18:41:29.069Z,13.20
2019-02-28T18:44:00.044Z,13.20
2019-02-28T18:46:29.778Z,13.20
2019-02-28T18:48:59.372Z,13.10
2019-02-28T18:51:28.341Z,13.20
2019-02-28T18:53:57.261Z,13.10
2019-02-28T18:56:26.285Z,13.10
2019-02-28T18:58:55.293Z,13.10
2019-02-28T19:01:24.246Z,13.00
2019-02-28T19:03:53.130Z,13.00
2019-02-28T19:06:22.033Z,13.00
2019-02-28T19:08:50.927Z,12.90
2019-02-28T19:11:19.920Z,12.80
2019-02-28T19:13:48.860Z,12.80
2019-02-28T19:16:17.953Z,12.80
2019-02-28T19:18:46.884Z,12.80
2019-02-28T19:21:15.860Z,12.80
2019-02-28T19:23:44.731Z,12.80
2019-02-28T19:26:13.552Z,12.80
2019-02-28T19:28:42.492Z,12.80
2019-02-28T19:31:11.364Z,12.80
2019-02-28T19:33:40.414Z,12.80
2019-02-28T19:36:09.303Z,12.80
2019-02-28T19:38:38.097Z,12.80
2019-02-28T19:41:06.980Z,12.80
2019-02-28T19:43:35.968Z,12.80
2019-02-28T19:46:05.258Z,12.70
2019-02-28T19:48:36.838Z,12.80
2019-02-28T19:51:06.049Z,12.70
2019-02-28T19:53:34.956Z,12.70
2019-02-28T19:56:04.397Z,12.70
2019-02-28T19:58:33.277Z,12.70
2019-02-28T20:01:02.280Z,12.70
2019-02-28T20:03:31.236Z,12.70
2019-02-28T20:06:00.553Z,12.60
2019-02-28T20:08:29.487Z,12.60
2019-02-28T20:10:58.380Z,12.60
2019-02-28T20:13:27.257Z,12.60
2019-02-28T20:15:56.454Z,12.50
2019-02-28T20:18:25.449Z,12.50
2019-02-28T20:20:54.468Z,12.50
2019-02-28T20:23:24.823Z,12.40
2019-02-28T20:25:53.823Z,12.40
2019-02-28T20:28:23.107Z,12.40
2019-02-28T20:30:52.115Z,12.30
2019-02-28T20:33:21.290Z,12.30
2019-02-28T20:35:50.377Z,12.30
2019-02-28T20:38:19.668Z,12.30
2019-02-28T20:40:48.642Z,12.20
2019-02-28T20:43:17.464Z,12.20
2019-02-28T20:45:46.612Z,12.20
2019-02-28T20:48:16.061Z,12.20
2019-02-28T20:50:46.247Z,12.20
2019-02-28T20:53:15.664Z,12.20
2019-02-28T20:55:44.464Z,12.20
2019-02-28T20:58:13.343Z,12.20
2019-02-28T21:00:42.340Z,12.20
2019-02-28T21:03:11.592Z,12.20
2019-02-28T21:05:40.565Z,12.20
2019-02-28T21:08:09.476Z,12.20
2019-02-28T21:10:38.593Z,12.20
2019-02-28T21:13:07.604Z,12.20
2019-02-28T21:15:36.868Z,12.10
2019-02-28T21:18:05.833Z,12.10
2019-02-28T21:20:34.728Z,12.10
2019-02-28T21:23:03.705Z,12.20
2019-02-28T21:25:32.613Z,12.20
2019-02-28T21:28:01.572Z,12.10
2019-02-28T21:30:30.585Z,12.10
2019-02-28T21:32:59.509Z,12.10
2019-02-28T21:35:28.970Z,12.20
2019-02-28T21:37:58.109Z,12.20
2019-02-28T21:40:27.025Z,12.20
2019-02-28T21:42:55.792Z,12.20
2019-02-28T21:45:24.798Z,12.20
2019-02-28T21:47:53.892Z,12.20
2019-02-28T21:50:23.404Z,12.20
2019-02-28T21:52:52.394Z,12.20
2019-02-28T21:55:21.164Z,12.10
2019-02-28T21:57:50.080Z,12.20
2019-02-28T22:00:21.402Z,12.20
2019-02-28T22:02:50.425Z,12.20
2019-02-28T22:05:19.508Z,12.20
2019-02-28T22:07:48.430Z,12.10
2019-02-28T22:10:17.577Z,12.10
2019-02-28T22:12:46.871Z,12.10
2019-02-28T22:15:16.904Z,12.10
2019-02-28T22:17:45.846Z,12.10
2019-02-28T22:20:15.398Z,12.10
2019-02-28T22:22:44.338Z,12.10
2019-02-28T22:25:13.380Z,12.10
2019-02-28T22:27:42.313Z,12.10
2019-02-28T22:30:50.197Z,12.10
2019-02-28T22:33:36.164Z,12.10
2019-02-28T22:36:05.760Z,11.90
2019-02-28T22:38:39.131Z,11.80
2019-02-28T22:41:07.915Z,11.70
2019-02-28T22:43:36.819Z,11.70
2019-02-28T22:46:05.768Z,11.70
2019-02-28T22:48:34.928Z,11.60
2019-02-28T22:51:04.130Z,11.60
2019-02-28T22:53:32.940Z,11.60
2019-02-28T22:56:01.821Z,11.60
2019-02-28T22:58:30.708Z,11.70
2019-02-28T23:01:03.622Z,11.60
2019-02-28T23:03:33.216Z,11.70
2019-02-28T23:06:02.336Z,11.70
2019-02-28T23:08:31.317Z,11.80
2019-02-28T23:11:00.260Z,11.70
2019-02-28T23:13:29.238Z,11.70
2019-02-28T23:15:58.136Z,11.80
2019-02-28T23:18:27.036Z,11.80
2019-02-28T23:20:55.952Z,11.70
2019-02-28T23:23:24.986Z,11.70
2019-02-28T23:25:53.896Z,11.70
2019-02-28T23:28:28.376Z,11.60
2019-02-28T23:31:27.973Z,11.50
2019-02-28T23:34:01.343Z,11.50
2019-02-28T23:36:29.034Z,11.60
2019-02-28T23:38:57.989Z,11.60
2019-02-28T23:41:26.881Z,11.60
2019-02-28T23:43:55.876Z,11.60
2019-02-28T23:46:25.072Z,11.60
2019-02-28T23:48:53.880Z,11.70
2019-02-28T23:51:22.840Z,11.60
2019-02-28T23:53:52.147Z,11.60
2019-02-28T23:56:21.172Z,11.70
2019-02-28T23:58:49.964Z,11.70
